Time,TemperatureF,DewpointF,PressureIn,WindDirection,WindDirectionDegrees,WindSpeedMPH,WindSpeedGustMPH,Humidity,HourlyPrecipIn,Conditions,Clouds,dailyrainin,SolarRadiationWatts/m^2,SoftwareType,DateUTC
2013-02-03 00:00:00,38.0,16.0,-100.00,WSW,248,4.0,6.0,41,-99.99,,,0.00,-0.200000,,2013-02-03 08:00:00,
2013-02-03 00:52:00,38.0,16.0,-100.00,WSW,248,4.0,6.0,41,-99.99,,,0.00,-0.200000,,2013-02-03 08:52:00,
2013-02-03 01:00:00,38.0,17.0,-100.00,NW,311,5.0,8.0,42,-99.99,,,0.00,-0.200000,,2013-02-03 09:00:00,
2013-02-03 01:52:00,38.0,17.0,-100.00,NW,311,5.0,8.0,42,-99.99,,,0.00,-0.200000,,2013-02-03 09:52:00,
2013-02-03 02:00:00,38.0,21.0,-100.00,West,271,4.0,6.0,48,-99.99,,,0.00,-0.200000,,2013-02-03 10:00:00,
2013-02-03 02:52:00,38.0,21.0,-100.00,West,271,4.0,6.0,48,-99.99,,,0.00,-0.200000,,2013-02-03 10:52:00,
2013-02-03 03:00:00,38.0,20.0,-100.00,West,275,4.0,7.0,48,-99.99,,,0.00,-0.200000,,2013-02-03 11:00:00,
2013-02-03 03:52:00,38.0,20.0,-100.00,West,275,4.0,7.0,48,-99.99,,,0.00,-0.200000,,2013-02-03 11:52:00,
2013-02-03 04:00:00,37.0,20.0,-100.00,West,276,2.0,6.0,51,-99.99,,,0.00,-0.200000,,2013-02-03 12:00:00,
2013-02-03 04:53:00,37.0,20.0,-100.00,West,276,2.0,6.0,51,-99.99,,,0.00,-0.200000,,2013-02-03 12:53:00,
2013-02-03 05:00:00,37.0,21.0,-100.00,South,180,2.0,5.0,52,-99.99,,,0.00,-0.200000,,2013-02-03 13:00:00,
2013-02-03 05:52:00,37.0,21.0,-100.00,South,180,2.0,5.0,52,-99.99,,,0.00,-0.200000,,2013-02-03 13:52:00,
2013-02-03 06:00:00,37.0,-99.9,-100.00,North,-999,-999.0,-999.0,-999,-99.99,,,0.00,-21.299999,,2013-02-03 14:00:00,
2013-02-03 06:53:00,37.0,-99.9,-100.00,North,-999,-999.0,-999.0,-999,-99.99,,,0.00,-21.299999,,2013-02-03 14:53:00,
2013-02-03 07:00:00,36.0,20.0,-100.00,WSW,238,4.0,8.0,52,-99.99,,,-99.99,-2.400000,,2013-02-03 15:00:00,
2013-02-03 08:00:00,37.0,21.0,-100.00,WNW,283,4.0,7.0,53,-99.99,,,0.00,6.800000,,2013-02-03 16:00:00,
2013-02-03 08:52:00,37.0,21.0,-100.00,WNW,283,4.0,7.0,53,-99.99,,,0.00,6.800000,,2013-02-03 16:52:00,
2013-02-03 09:00:00,38.0,18.0,-100.00,WSW,255,4.0,6.0,44,-99.99,,,0.00,32.799999,,2013-02-03 17:00:00,
2013-02-03 09:52:00,38.0,18.0,-100.00,WSW,255,4.0,6.0,44,-99.99,,,0.00,32.799999,,2013-02-03 17:52:00,
2013-02-03 10:00:00,40.0,14.0,-100.00,West,272,4.0,6.0,35,-99.99,,,0.00,70.099998,,2013-02-03 18:00:00,
2013-02-03 10:52:00,40.0,14.0,-100.00,West,272,4.0,6.0,35,-99.99,,,0.00,70.099998,,2013-02-03 18:52:00,
2013-02-03 11:00:00,41.0,9.0,-100.00,West,262,3.0,6.0,26,-99.99,,,0.00,120.199997,,2013-02-03 19:00:00,
2013-02-03 11:52:00,41.0,9.0,-100.00,West,262,3.0,6.0,26,-99.99,,,0.00,120.199997,,2013-02-03 19:52:00,
2013-02-03 12:00:00,41.0,8.0,-100.00,WSW,243,4.0,6.0,25,-99.99,,,-99.99,116.699997,,2013-02-03 20:00:00,
2013-02-03 12:52:00,41.0,8.0,-100.00,WSW,243,4.0,6.0,25,-99.99,,,-99.99,116.699997,,2013-02-03 20:52:00,
2013-02-03 13:00:00,41.0,10.0,-100.00,West,280,4.0,6.0,27,-99.99,,,-99.99,137.800003,,2013-02-03 21:00:00,
2013-02-03 13:52:00,41.0,10.0,-100.00,West,280,4.0,6.0,27,-99.99,,,-99.99,137.800003,,2013-02-03 21:52:00,
2013-02-03 14:00:00,40.0,11.0,-100.00,West,267,4.0,7.0,30,-99.99,,,0.00,128.600006,,2013-02-03 22:00:00,
2013-02-03 14:52:00,40.0,11.0,-100.00,West,267,4.0,7.0,30,-99.99,,,0.00,128.600006,,2013-02-03 22:52:00,
2013-02-03 15:00:00,38.0,18.0,-100.00,WSW,258,3.0,6.0,44,-99.99,,,0.00,96.500000,,2013-02-03 23:00:00,
2013-02-03 15:52:00,38.0,18.0,-100.00,WSW,258,3.0,6.0,44,-99.99,,,0.00,96.500000,,2013-02-03 23:52:00,
2013-02-03 16:00:00,37.0,22.0,-100.00,WSW,255,3.0,6.0,54,-99.99,,,0.00,51.700001,,2013-02-04 00:00:00,
2013-02-03 16:52:00,37.0,22.0,-100.00,WSW,255,3.0,6.0,54,-99.99,,,0.00,51.700001,,2013-02-04 00:52:00,
2013-02-03 17:00:00,37.0,23.0,-100.00,WNW,292,3.0,6.0,58,-99.99,,,0.00,14.300000,,2013-02-04 01:00:00,
2013-02-03 17:52:00,37.0,23.0,-100.00,WNW,292,3.0,6.0,58,-99.99,,,0.00,14.300000,,2013-02-04 01:52:00,
2013-02-03 18:00:00,35.0,24.0,-100.00,West,266,3.0,5.0,64,-99.99,,,0.00,0.200000,,2013-02-04 02:00:00,
2013-02-03 18:52:00,35.0,24.0,-100.00,West,266,3.0,5.0,64,-99.99,,,0.00,0.200000,,2013-02-04 02:52:00,
2013-02-03 19:00:00,36.0,23.0,-100.00,WNW,297,3.0,6.0,58,-99.99,,,0.00,-0.200000,,2013-02-04 03:00:00,
2013-02-03 19:52:00,36.0,23.0,-100.00,WNW,297,3.0,6.0,58,-99.99,,,0.00,-0.200000,,2013-02-04 03:52:00,
2013-02-03 20:00:00,35.0,25.0,-100.00,WNW,300,3.0,6.0,69,-99.99,,,0.00,-0.200000,,2013-02-04 04:00:00,
2013-02-03 20:52:00,35.0,25.0,-100.00,WNW,300,3.0,6.0,69,-99.99,,,0.00,-0.200000,,2013-02-04 04:52:00,
2013-02-03 21:00:00,34.0,27.0,-100.00,WNW,293,3.0,7.0,75,-99.99,,,0.00,-0.200000,,2013-02-04 05:00:00,
2013-02-03 21:52:00,34.0,27.0,-100.00,WNW,293,3.0,7.0,75,-99.99,,,0.00,-0.200000,,2013-02-04 05:52:00,
2013-02-03 22:00:00,33.0,27.0,-100.00,West,259,7.0,12.0,77,-99.99,,,0.00,-0.200000,,2013-02-04 06:00:00,
2013-02-03 22:52:00,33.0,27.0,-100.00,West,259,7.0,12.0,77,-99.99,,,0.00,-0.200000,,2013-02-04 06:52:00,
2013-02-03 23:00:00,32.0,27.0,-100.00,West,260,6.0,10.0,79,-99.99,,,0.00,-0.200000,,2013-02-04 07:00:00,
2013-02-03 23:52:00,32.0,27.0,-100.00,West,260,6.0,10.0,79,-99.99,,,0.00,-0.200000,,2013-02-04 07:52:00,